Time;durP1;ratioP1;P1;durP2;ratioP2;P2;SDS_P1;SDS_P2;PMS_P1;PMS_P2;Temp;Humidity;BMP_temperature;BMP_pressure;BME280_temperature;BME280_humidity;BME280_pressure;Samples;Min_cycle;Max_cycle;Signal;HPM_P1;HPM_P2
2022/08/30 00:02:32;;;;;;;;;;;15.00;99.90;;;;;;4986133;28;19941;-82
2022/08/30 00:05:00;;;;;;;;;;;15.00;99.90;;;;;;4979007;28;19936;-79
2022/08/30 00:07:26;;;;;;;;;;;15.00;99.90;;;;;;4965964;28;19929;-81
2022/08/30 00:09:52;;;;;;;;;;;15.00;99.90;;;;;;4981003;28;19933;-78
2022/08/30 00:12:19;;;;;;;;;;;14.90;99.90;;;;;;4982041;28;19932;-80
2022/08/30 00:14:46;;;;;;;;;;;15.00;99.90;;;;;;4988693;28;19933;-79
2022/08/30 00:17:12;;;;;;;;;;;14.90;99.90;;;;;;4986528;28;19933;-78
2022/08/30 00:19:38;;;;;;;;;;;14.90;99.90;;;;;;4981353;28;19926;-78
2022/08/30 00:22:05;;;;;;;;;;;14.90;99.90;;;;;;4991533;28;19986;-78
2022/08/30 00:24:30;;;;;;;;;;;14.90;99.90;;;;;;4976584;28;19985;-78
2022/08/30 00:26:56;;;;;;;;;;;14.90;99.90;;;;;;4965533;28;19929;-78
2022/08/30 00:29:22;;;;;;;;;;;14.80;99.90;;;;;;4964571;28;19926;-78
2022/08/30 00:31:48;;;;;;;;;;;14.90;99.90;;;;;;4983124;28;19979;-80
2022/08/30 00:34:15;;;;;;;;;;;14.80;99.90;;;;;;4963407;28;19929;-78
2022/08/30 00:36:42;;;;;;;;;;;14.90;99.90;;;;;;4981916;28;20007;-77
2022/08/30 00:39:08;;;;;;;;;;;14.80;99.90;;;;;;4978642;28;19926;-78
2022/08/30 00:41:34;;;;;;;;;;;14.80;99.90;;;;;;4995690;28;19934;-79
2022/08/30 00:44:00;;;;;;;;;;;14.80;99.90;;;;;;4974383;28;19930;-78
2022/08/30 00:46:26;;;;;;;;;;;14.80;99.90;;;;;;4964797;28;20427;-78
2022/08/30 00:48:52;;;;;;;;;;;14.80;99.90;;;;;;4977443;28;19926;-78
2022/08/30 00:51:19;;;;;;;;;;;14.80;99.90;;;;;;4983223;28;19929;-78
2022/08/30 00:53:47;;;;;;;;;;;14.70;99.90;;;;;;4975355;28;19937;-79
2022/08/30 00:56:14;;;;;;;;;;;14.70;99.90;;;;;;4980306;28;19929;-79
2022/08/30 00:58:42;;;;;;;;;;;14.70;99.90;;;;;;4974598;28;20082;-80
2022/08/30 01:01:09;;;;;;;;;;;14.60;99.90;;;;;;4971543;28;19937;-80
2022/08/30 01:03:35;;;;;;;;;;;14.70;99.90;;;;;;4983818;28;20338;-79
2022/08/30 01:06:02;;;;;;;;;;;14.70;99.90;;;;;;4981124;28;19922;-79
2022/08/30 01:08:28;;;;;;;;;;;14.60;99.90;;;;;;4976877;28;19929;-80
2022/08/30 01:10:54;;;;;;;;;;;14.70;99.90;;;;;;4968748;28;19933;-80
2022/08/30 01:13:21;;;;;;;;;;;14.60;99.90;;;;;;4976334;28;19945;-79
2022/08/30 01:15:48;;;;;;;;;;;14.60;99.90;;;;;;4975545;28;19925;-80
2022/08/30 01:18:16;;;;;;;;;;;14.60;99.90;;;;;;4980367;28;19988;-79
2022/08/30 01:20:48;;;;;;;;;;;14.50;99.90;;;;;;4985553;28;19926;-79
2022/08/30 01:23:16;;;;;;;;;;;14.50;99.90;;;;;;4986659;28;19933;-78
2022/08/30 01:25:42;;;;;;;;;;;14.40;99.90;;;;;;4974941;28;19933;-79
2022/08/30 01:28:10;;;;;;;;;;;14.40;99.90;;;;;;4962924;28;19932;-78
2022/08/30 01:30:41;;;;;;;;;;;14.30;99.90;;;;;;4963142;28;19937;-78
2022/08/30 01:33:08;;;;;;;;;;;14.30;99.90;;;;;;4981085;28;19926;-78
2022/08/30 01:35:37;;;;;;;;;;;14.30;99.90;;;;;;4979827;28;20029;-79
2022/08/30 01:38:04;;;;;;;;;;;14.20;99.90;;;;;;4983243;28;20551;-82
2022/08/30 01:40:29;;;;;;;;;;;14.20;99.90;;;;;;4959112;28;20011;-81
2022/08/30 01:42:55;;;;;;;;;;;14.20;99.90;;;;;;4964096;28;19926;-81
2022/08/30 01:45:21;;;;;;;;;;;14.10;99.90;;;;;;4974746;28;19925;-80
2022/08/30 01:47:47;;;;;;;;;;;14.10;99.90;;;;;;4980366;28;20289;-82
2022/08/30 01:50:12;;;;;;;;;;;14.10;99.90;;;;;;4977725;28;20336;-81
2022/08/30 01:52:38;;;;;;;;;;;14.10;99.90;;;;;;4985295;28;19932;-79
2022/08/30 01:55:04;;;;;;;;;;;14.10;99.90;;;;;;4976094;28;19926;-80
2022/08/30 01:57:30;;;;;;;;;;;14.00;99.90;;;;;;4974546;28;19943;-80
2022/08/30 01:59:56;;;;;;;;;;;14.00;99.90;;;;;;4962608;28;19926;-81
2022/08/30 02:02:24;;;;;;;;;;;14.00;99.90;;;;;;4976533;28;19933;-80
2022/08/30 02:04:52;;;;;;;;;;;14.00;99.90;;;;;;4960434;28;19962;-81
2022/08/30 02:07:18;;;;;;;;;;;14.00;99.90;;;;;;5019425;23;19925;-81
2022/08/30 02:09:44;;;;;;;;;;;13.90;99.90;;;;;;4994073;28;19933;-80
2022/08/30 02:12:10;;;;;;;;;;;13.90;99.90;;;;;;4969923;28;19936;-81
2022/08/30 02:14:36;;;;;;;;;;;13.90;99.90;;;;;;4952419;28;20573;-81
2022/08/30 02:17:03;;;;;;;;;;;13.80;99.90;;;;;;4978784;28;19933;-80
2022/08/30 02:19:29;;;;;;;;;;;13.80;99.90;;;;;;4988145;28;19930;-81
2022/08/30 02:21:55;;;;;;;;;;;13.70;99.90;;;;;;4986959;28;20415;-81
2022/08/30 02:24:21;;;;;;;;;;;13.70;99.90;;;;;;4971783;28;19922;-81
2022/08/30 02:26:47;;;;;;;;;;;13.70;99.90;;;;;;4977700;28;20012;-81
2022/08/30 02:29:13;;;;;;;;;;;13.70;99.90;;;;;;4983029;28;19929;-82
2022/08/30 02:31:39;;;;;;;;;;;13.70;99.90;;;;;;4989967;28;20046;-82
2022/08/30 02:34:05;;;;;;;;;;;13.70;99.90;;;;;;4990641;28;19929;-83
2022/08/30 02:36:31;;;;;;;;;;;13.70;99.90;;;;;;4988372;28;19925;-81
2022/08/30 02:38:57;;;;;;;;;;;13.80;99.90;;;;;;4984410;28;19925;-82
2022/08/30 02:41:22;;;;;;;;;;;13.80;99.90;;;;;;4988479;28;19933;-79
2022/08/30 02:43:48;;;;;;;;;;;13.90;99.90;;;;;;4963014;28;19926;-83
2022/08/30 02:46:15;;;;;;;;;;;13.90;99.90;;;;;;4975343;28;20036;-83
2022/08/30 02:48:40;;;;;;;;;;;13.90;99.90;;;;;;4978808;28;19926;-83
2022/08/30 02:51:08;;;;;;;;;;;14.00;99.90;;;;;;4982472;28;20348;-84
2022/08/30 02:53:35;;;;;;;;;;;14.10;99.90;;;;;;4979184;28;20340;-84
2022/08/30 02:56:01;;;;;;;;;;;14.20;99.90;;;;;;4975056;28;19961;-81
2022/08/30 02:58:27;;;;;;;;;;;14.20;99.90;;;;;;4959611;28;19930;-81
2022/08/30 03:00:52;;;;;;;;;;;14.30;99.90;;;;;;4978634;28;19925;-82
2022/08/30 03:03:18;;;;;;;;;;;14.30;99.90;;;;;;4989456;28;19925;-81
2022/08/30 03:05:44;;;;;;;;;;;14.40;99.90;;;;;;4965335;28;19981;-80
2022/08/30 03:08:10;;;;;;;;;;;14.40;99.90;;;;;;4978472;28;19930;-80
2022/08/30 03:10:37;;;;;;;;;;;14.50;99.90;;;;;;4958345;28;19930;-81
2022/08/30 03:13:05;;;;;;;;;;;14.60;99.90;;;;;;4963969;28;19929;-84
2022/08/30 03:15:31;;;;;;;;;;;14.60;99.90;;;;;;4957942;28;19926;-77
2022/08/30 03:17:57;;;;;;;;;;;14.90;99.90;;;;;;4946107;28;19986;-80
2022/08/30 03:20:23;;;;;;;;;;;14.70;99.90;;;;;;4952497;28;19952;-82
2022/08/30 03:22:49;;;;;;;;;;;14.80;99.90;;;;;;4941724;28;19927;-81
2022/08/30 03:25:15;;;;;;;;;;;14.80;99.90;;;;;;4957261;28;20407;-81
2022/08/30 03:27:41;;;;;;;;;;;14.70;99.90;;;;;;4961387;28;19926;-83
2022/08/30 03:30:08;;;;;;;;;;;14.70;99.90;;;;;;4960918;28;20410;-80
2022/08/30 03:32:33;;;;;;;;;;;14.70;99.90;;;;;;4949944;28;20281;-79
2022/08/30 03:34:59;;;;;;;;;;;14.70;99.90;;;;;;4951661;28;19938;-80
2022/08/30 03:37:26;;;;;;;;;;;14.70;99.90;;;;;;4963663;28;20016;-82
2022/08/30 03:39:53;;;;;;;;;;;14.70;99.90;;;;;;4957897;28;19977;-82
2022/08/30 03:42:25;;;;;;;;;;;14.70;99.90;;;;;;4972813;28;19932;-82
2022/08/30 03:44:51;;;;;;;;;;;14.70;99.90;;;;;;4963363;28;19988;-82
2022/08/30 03:47:17;;;;;;;;;;;14.70;99.90;;;;;;4960503;28;20032;-83
2022/08/30 03:49:44;;;;;;;;;;;14.70;99.90;;;;;;4979422;28;19993;-86
2022/08/30 03:52:10;;;;;;;;;;;14.70;99.90;;;;;;4960461;28;19953;-84
2022/08/30 03:54:37;;;;;;;;;;;14.70;99.90;;;;;;4959195;28;20321;-82
2022/08/30 03:57:03;;;;;;;;;;;14.70;99.90;;;;;;4975998;28;19929;-82
2022/08/30 03:59:29;;;;;;;;;;;14.70;99.90;;;;;;4965745;28;20336;-80
2022/08/30 04:01:54;;;;;;;;;;;14.70;99.90;;;;;;4949371;28;20020;-82
2022/08/30 04:04:20;;;;;;;;;;;14.70;99.90;;;;;;4957404;28;20009;-81
2022/08/30 04:06:46;;;;;;;;;;;14.70;99.90;;;;;;4968963;28;19937;-82
2022/08/30 04:09:12;;;;;;;;;;;14.70;99.90;;;;;;4981254;28;20281;-82
2022/08/30 04:11:37;;;;;;;;;;;14.70;99.90;;;;;;4992925;28;20085;-84
2022/08/30 04:14:03;;;;;;;;;;;14.80;99.90;;;;;;4988910;28;19930;-82
2022/08/30 04:16:29;;;;;;;;;;;14.60;99.90;;;;;;4994285;28;19936;-82
2022/08/30 04:18:55;;;;;;;;;;;14.40;99.90;;;;;;4987364;28;19930;-82
2022/08/30 04:21:27;;;;;;;;;;;14.20;99.90;;;;;;4977053;28;19937;-84
2022/08/30 04:23:52;;;;;;;;;;;14.10;99.90;;;;;;4985727;28;19926;-81
2022/08/30 04:26:18;;;;;;;;;;;14.00;99.90;;;;;;4985097;28;19948;-81
2022/08/30 04:28:44;;;;;;;;;;;13.90;99.90;;;;;;4966393;28;20023;-85
2022/08/30 04:31:12;;;;;;;;;;;13.80;99.90;;;;;;4991307;28;19937;-81
2022/08/30 04:33:39;;;;;;;;;;;13.70;99.90;;;;;;4987336;28;19930;-82
2022/08/30 04:36:06;;;;;;;;;;;13.70;99.90;;;;;;4992750;28;19941;-82
2022/08/30 04:38:32;;;;;;;;;;;13.70;99.90;;;;;;4991967;28;19935;-81
2022/08/30 04:40:59;;;;;;;;;;;13.70;99.90;;;;;;5001694;28;19977;-83
2022/08/30 04:43:25;;;;;;;;;;;13.60;99.90;;;;;;4995157;28;19933;-81
2022/08/30 04:45:52;;;;;;;;;;;13.60;99.90;;;;;;4983006;28;19934;-85
2022/08/30 04:48:18;;;;;;;;;;;13.60;99.90;;;;;;4991244;28;19996;-82
2022/08/30 04:50:44;;;;;;;;;;;13.50;99.90;;;;;;4994609;28;19933;-81
2022/08/30 04:53:09;;;;;;;;;;;13.50;99.90;;;;;;4995369;28;19948;-81
2022/08/30 04:55:36;;;;;;;;;;;13.40;99.90;;;;;;4978959;28;20603;-83
2022/08/30 04:58:02;;;;;;;;;;;13.30;99.90;;;;;;4993418;28;20589;-87
2022/08/30 05:00:28;;;;;;;;;;;13.20;99.90;;;;;;5000253;28;20012;-81
2022/08/30 05:02:53;;;;;;;;;;;13.20;99.90;;;;;;4994415;28;20402;-82
2022/08/30 05:05:38;;;;;;;;;;;13.20;99.90;;;;;;4972865;28;20587;-84
2022/08/30 05:08:06;;;;;;;;;;;13.20;99.90;;;;;;4977767;28;19930;-84
2022/08/30 05:10:33;;;;;;;;;;;13.20;99.90;;;;;;4995808;28;19934;-82
2022/08/30 05:12:59;;;;;;;;;;;13.20;99.90;;;;;;4998240;28;19933;-80
2022/08/30 05:15:25;;;;;;;;;;;13.30;99.90;;;;;;4984628;28;19987;-81
2022/08/30 05:17:50;;;;;;;;;;;13.30;99.90;;;;;;5000906;28;20043;-81
2022/08/30 05:20:16;;;;;;;;;;;13.20;99.90;;;;;;4978869;28;19977;-80
2022/08/30 05:22:48;;;;;;;;;;;13.10;99.90;;;;;;4994501;28;19934;-82
2022/08/30 05:25:16;;;;;;;;;;;13.00;99.90;;;;;;4994057;28;20016;-81
2022/08/30 05:27:41;;;;;;;;;;;12.90;99.90;;;;;;4995228;28;20376;-81
2022/08/30 05:30:08;;;;;;;;;;;12.90;99.90;;;;;;4983822;28;19932;-80
2022/08/30 05:32:33;;;;;;;;;;;12.80;99.90;;;;;;4982619;28;20345;-81
2022/08/30 05:34:59;;;;;;;;;;;12.80;99.90;;;;;;4975080;28;20003;-80
2022/08/30 05:37:25;;;;;;;;;;;12.80;99.90;;;;;;4974583;28;19933;-81
2022/08/30 05:39:51;;;;;;;;;;;12.80;99.90;;;;;;4995345;28;19957;-80
2022/08/30 05:42:17;;;;;;;;;;;12.90;99.90;;;;;;4992259;28;19953;-81
2022/08/30 05:44:43;;;;;;;;;;;12.90;99.90;;;;;;4994997;28;19936;-81
2022/08/30 05:47:08;;;;;;;;;;;13.00;99.90;;;;;;5001148;28;19975;-81
2022/08/30 05:49:34;;;;;;;;;;;13.00;99.90;;;;;;4986676;28;20221;-81
2022/08/30 05:52:00;;;;;;;;;;;13.10;99.90;;;;;;4998643;28;19937;-81
2022/08/30 05:54:26;;;;;;;;;;;13.10;99.90;;;;;;4979687;28;20024;-81
2022/08/30 05:56:51;;;;;;;;;;;13.10;99.90;;;;;;4984072;28;19934;-81
2022/08/30 05:59:17;;;;;;;;;;;13.20;99.90;;;;;;4995072;28;19973;-81
2022/08/30 06:01:44;;;;;;;;;;;13.30;99.90;;;;;;4999658;28;19930;-80
2022/08/30 06:04:11;;;;;;;;;;;13.30;99.90;;;;;;4980217;28;19941;-81
2022/08/30 06:06:37;;;;;;;;;;;13.40;99.90;;;;;;5001584;28;19929;-81
2022/08/30 06:09:04;;;;;;;;;;;13.50;99.90;;;;;;4986192;28;20056;-83
2022/08/30 06:11:29;;;;;;;;;;;13.60;99.90;;;;;;4999546;28;21177;-80
2022/08/30 06:13:56;;;;;;;;;;;13.70;99.90;;;;;;4985634;28;19949;-81
2022/08/30 06:16:24;;;;;;;;;;;13.90;99.90;;;;;;5001262;28;19926;-81
2022/08/30 06:18:50;;;;;;;;;;;14.00;99.90;;;;;;4982358;28;19953;-82
2022/08/30 06:21:20;;;;;;;;;;;14.20;99.90;;;;;;4987590;28;19929;-83
2022/08/30 06:23:46;;;;;;;;;;;14.30;99.90;;;;;;4997257;28;19926;-81
2022/08/30 06:26:12;;;;;;;;;;;14.40;99.90;;;;;;4992524;28;19925;-81
2022/08/30 06:28:38;;;;;;;;;;;14.60;99.90;;;;;;4997419;28;19978;-81
2022/08/30 06:31:07;;;;;;;;;;;14.70;99.90;;;;;;4999987;28;19929;-81
2022/08/30 06:33:33;;;;;;;;;;;14.90;99.90;;;;;;5017145;28;20276;-81
2022/08/30 06:36:04;;;;;;;;;;;15.10;99.90;;;;;;4981133;28;19933;-82
2022/08/30 06:38:29;;;;;;;;;;;15.20;99.90;;;;;;5004799;28;19936;-82
2022/08/30 06:40:55;;;;;;;;;;;15.40;99.90;;;;;;4997531;28;19933;-79
2022/08/30 06:43:21;;;;;;;;;;;15.50;99.90;;;;;;4981594;28;19933;-81
2022/08/30 06:45:47;;;;;;;;;;;15.70;99.90;;;;;;4990101;28;19949;-81
2022/08/30 06:48:13;;;;;;;;;;;15.90;99.90;;;;;;4994822;28;19974;-80
2022/08/30 06:50:40;;;;;;;;;;;16.20;99.90;;;;;;4984202;28;19988;-80
2022/08/30 06:53:07;;;;;;;;;;;16.40;99.90;;;;;;4997951;28;19926;-82
2022/08/30 06:55:33;;;;;;;;;;;16.70;99.90;;;;;;4972548;28;20012;-81
2022/08/30 06:57:59;;;;;;;;;;;17.00;99.90;;;;;;4990843;28;20416;-80
2022/08/30 07:00:25;;;;;;;;;;;17.00;99.90;;;;;;4980591;28;20016;-83
2022/08/30 07:02:51;;;;;;;;;;;17.10;99.90;;;;;;4982072;28;20020;-79
2022/08/30 07:05:20;;;;;;;;;;;17.20;99.90;;;;;;4999575;28;20052;-84
2022/08/30 07:07:46;;;;;;;;;;;17.40;99.90;;;;;;4983960;28;20289;-86
2022/08/30 07:10:13;;;;;;;;;;;17.90;99.90;;;;;;4994623;28;19975;-82
2022/08/30 07:12:39;;;;;;;;;;;18.80;99.90;;;;;;4975781;28;19933;-81
2022/08/30 07:15:06;;;;;;;;;;;19.90;99.90;;;;;;4991574;28;19929;-81
2022/08/30 07:20:18;;;;;;;;;;;22.10;99.90;;;;;;4999538;28;19929;-82
2022/08/30 07:22:45;;;;;;;;;;;23.20;99.90;;;;;;4975419;28;19929;-80
2022/08/30 07:25:10;;;;;;;;;;;24.00;99.90;;;;;;4971276;28;20658;-82
2022/08/30 07:27:36;;;;;;;;;;;24.50;99.90;;;;;;4996384;28;19987;-77
2022/08/30 07:30:04;;;;;;;;;;;25.00;99.90;;;;;;4990911;28;19929;-84
2022/08/30 07:32:30;;;;;;;;;;;25.10;99.90;;;;;;4984320;28;19929;-77
2022/08/30 07:34:55;;;;;;;;;;;24.80;99.90;;;;;;4988953;28;19933;-80
2022/08/30 07:37:21;;;;;;;;;;;23.80;99.90;;;;;;4975824;28;19926;-76
2022/08/30 07:39:47;;;;;;;;;;;23.20;99.90;;;;;;4994272;28;19926;-81
2022/08/30 07:42:12;;;;;;;;;;;22.60;99.90;;;;;;4992775;28;20017;-82
2022/08/30 07:44:38;;;;;;;;;;;22.20;99.90;;;;;;4988422;28;19996;-80
2022/08/30 07:47:04;;;;;;;;;;;22.10;99.90;;;;;;4992133;28;20375;-86
2022/08/30 07:49:30;;;;;;;;;;;22.20;99.90;;;;;;4990638;28;19937;-80
2022/08/30 07:51:56;;;;;;;;;;;22.40;99.90;;;;;;5008488;28;20004;-79
2022/08/30 07:54:21;;;;;;;;;;;23.00;99.90;;;;;;4991636;28;20016;-80
2022/08/30 07:56:47;;;;;;;;;;;23.80;99.90;;;;;;4979230;28;19927;-82
2022/08/30 07:59:13;;;;;;;;;;;24.40;98.10;;;;;;4973227;28;20154;-85
2022/08/30 08:01:39;;;;;;;;;;;25.20;97.80;;;;;;4994542;28;20376;-80
2022/08/30 08:04:04;;;;;;;;;;;25.90;96.00;;;;;;4979306;28;19955;-85
2022/08/30 08:06:31;;;;;;;;;;;26.50;93.20;;;;;;4988712;28;19925;-81
2022/08/30 08:09:01;;;;;;;;;;;26.70;91.10;;;;;;4998939;28;19926;-84
2022/08/30 08:11:27;;;;;;;;;;;26.60;87.40;;;;;;4992772;28;19925;-80
2022/08/30 08:13:53;;;;;;;;;;;26.60;85.90;;;;;;4986638;28;19941;-77
2022/08/30 08:16:20;;;;;;;;;;;27.10;83.60;;;;;;4995812;28;19983;-81
2022/08/30 08:18:46;;;;;;;;;;;27.00;83.40;;;;;;4978277;28;19925;-80
2022/08/30 08:21:14;;;;;;;;;;;27.30;83.30;;;;;;4980240;28;20435;-79
2022/08/30 08:23:40;;;;;;;;;;;27.60;80.20;;;;;;4987326;28;20411;-80
2022/08/30 08:26:05;;;;;;;;;;;27.60;80.50;;;;;;4962522;28;19929;-77
2022/08/30 08:28:31;;;;;;;;;;;27.20;79.50;;;;;;4984433;28;20007;-80
2022/08/30 08:30:57;;;;;;;;;;;27.20;79.50;;;;;;4994403;28;19933;-81
2022/08/30 08:33:23;;;;;;;;;;;26.70;81.70;;;;;;4972366;28;19932;-82
2022/08/30 08:35:49;;;;;;;;;;;26.10;80.90;;;;;;4975445;28;19932;-82
2022/08/30 08:38:15;;;;;;;;;;;25.40;81.50;;;;;;4972256;28;20621;-80
2022/08/30 08:40:47;;;;;;;;;;;25.40;81.70;;;;;;4997489;28;19926;-84
2022/08/30 08:43:18;;;;;;;;;;;24.90;82.90;;;;;;4998750;28;19931;-79
2022/08/30 08:45:46;;;;;;;;;;;24.60;84.80;;;;;;4990735;28;20496;-81
2022/08/30 08:48:25;;;;;;;;;;;24.80;86.80;;;;;;4994139;28;19926;-78
2022/08/30 08:53:36;;;;;;;;;;;24.10;88.10;;;;;;4993097;28;19930;-83
2022/08/30 08:56:07;;;;;;;;;;;23.60;90.50;;;;;;4997600;28;20008;-80
2022/08/30 08:58:40;;;;;;;;;;;23.50;91.60;;;;;;5003931;28;19926;-80
2022/08/30 09:01:07;;;;;;;;;;;23.40;93.10;;;;;;5002884;28;20343;-79
2022/08/30 09:03:33;;;;;;;;;;;23.30;93.10;;;;;;4977745;28;19932;-82
2022/08/30 09:06:01;;;;;;;;;;;23.30;94.00;;;;;;4993823;28;19933;-79
2022/08/30 09:08:26;;;;;;;;;;;22.90;93.40;;;;;;4974717;28;20017;-80
2022/08/30 09:10:55;;;;;;;;;;;22.70;94.20;;;;;;4986176;28;20008;-81
2022/08/30 09:13:21;;;;;;;;;;;22.30;94.60;;;;;;4969605;28;20392;-78
2022/08/30 09:15:49;;;;;;;;;;;22.20;95.50;;;;;;4992591;28;20060;-82
2022/08/30 09:18:15;;;;;;;;;;;22.30;95.40;;;;;;4995267;28;20008;-81
2022/08/30 09:20:44;;;;;;;;;;;22.40;95.60;;;;;;4986323;28;19929;-78
2022/08/30 09:23:13;;;;;;;;;;;22.50;94.70;;;;;;4993776;28;19941;-79
2022/08/30 09:25:48;;;;;;;;;;;22.70;94.10;;;;;;4991537;28;20009;-81
2022/08/30 09:28:19;;;;;;;;;;;22.70;93.10;;;;;;4995429;28;19975;-81
2022/08/30 09:30:57;;;;;;;;;;;22.50;93.50;;;;;;4994540;28;19929;-79
2022/08/30 09:33:23;;;;;;;;;;;22.50;92.30;;;;;;4991612;28;20393;-81
2022/08/30 09:35:51;;;;;;;;;;;22.60;94.60;;;;;;4992927;28;19974;-86
2022/08/30 09:38:22;;;;;;;;;;;22.80;93.70;;;;;;4995272;28;19925;-79
2022/08/30 09:40:49;;;;;;;;;;;22.90;91.40;;;;;;4997345;28;20016;-83
2022/08/30 09:43:15;;;;;;;;;;;22.90;92.00;;;;;;4979580;28;19936;-82
2022/08/30 09:45:42;;;;;;;;;;;22.90;93.00;;;;;;4998940;28;19930;-82
2022/08/30 09:48:27;;;;;;;;;;;22.90;92.70;;;;;;4990517;28;20024;-81
2022/08/30 09:50:57;;;;;;;;;;;22.90;94.40;;;;;;5003446;28;19929;-79
2022/08/30 09:53:30;;;;;;;;;;;22.70;94.40;;;;;;4992504;28;19960;-82
2022/08/30 09:55:55;;;;;;;;;;;22.80;95.10;;;;;;4989232;28;19930;-80
2022/08/30 09:58:21;;;;;;;;;;;22.80;95.00;;;;;;4984157;28;19933;-80
2022/08/30 10:00:51;;;;;;;;;;;22.90;94.40;;;;;;5005058;28;19973;-83
2022/08/30 10:06:49;;;;;;;;;;;22.90;94.90;;;;;;4995584;28;19921;-78
2022/08/30 10:09:26;;;;;;;;;;;23.10;92.00;;;;;;4990258;28;20318;-81
2022/08/30 10:11:58;;;;;;;;;;;23.30;92.80;;;;;;5000822;28;19936;-80
2022/08/30 10:14:30;;;;;;;;;;;23.30;91.00;;;;;;4995290;28;19933;-84
2022/08/30 10:17:02;;;;;;;;;;;23.20;90.50;;;;;;5000782;28;19979;-80
2022/08/30 10:19:47;;;;;;;;;;;23.00;91.60;;;;;;5001173;28;20403;-79
2022/08/30 10:22:16;;;;;;;;;;;22.80;91.60;;;;;;4998029;28;20067;-79
2022/08/30 10:24:44;;;;;;;;;;;22.70;90.90;;;;;;5001708;28;19936;-78
2022/08/30 10:27:14;;;;;;;;;;;22.60;90.20;;;;;;5004166;28;19930;-80
2022/08/30 10:29:50;;;;;;;;;;;22.70;92.40;;;;;;5004590;28;19983;-81
2022/08/30 10:32:27;;;;;;;;;;;23.10;92.10;;;;;;5004638;28;19922;-81
2022/08/30 10:34:57;;;;;;;;;;;23.10;91.50;;;;;;4995337;28;20569;-83
2022/08/30 10:37:25;;;;;;;;;;;23.10;93.00;;;;;;4986464;28;19936;-83
2022/08/30 10:39:53;;;;;;;;;;;22.90;92.90;;;;;;4997344;28;19929;-80
2022/08/30 10:42:20;;;;;;;;;;;22.80;92.70;;;;;;4992519;28;19972;-79
2022/08/30 10:44:51;;;;;;;;;;;22.60;92.60;;;;;;5006427;28;20552;-81
2022/08/30 10:47:36;;;;;;;;;;;22.50;93.10;;;;;;4998136;28;19926;-80
2022/08/30 10:50:13;;;;;;;;;;;22.70;90.90;;;;;;4992394;28;20021;-80
2022/08/30 10:52:49;;;;;;;;;;;23.20;91.80;;;;;;4999569;28;19929;-79
2022/08/30 10:55:15;;;;;;;;;;;23.50;90.70;;;;;;4992539;28;19925;-78
2022/08/30 10:57:41;;;;;;;;;;;23.70;88.80;;;;;;4990911;28;19933;-79
2022/08/30 11:00:09;;;;;;;;;;;23.70;86.00;;;;;;4979948;28;20404;-78
2022/08/30 11:02:54;;;;;;;;;;;23.90;87.90;;;;;;4992246;28;19961;-81
2022/08/30 11:05:30;;;;;;;;;;;24.00;89.40;;;;;;4983776;28;19941;-80
2022/08/30 11:08:14;;;;;;;;;;;23.90;90.30;;;;;;4977571;28;20409;-79
2022/08/30 11:10:53;;;;;;;;;;;23.90;90.90;;;;;;4991628;28;19933;-79
2022/08/30 11:13:24;;;;;;;;;;;23.70;90.10;;;;;;4979994;28;20020;-76
2022/08/30 11:15:56;;;;;;;;;;;23.70;89.60;;;;;;4996923;28;19936;-78
2022/08/30 11:18:22;;;;;;;;;;;23.60;88.30;;;;;;4990846;28;19930;-82
2022/08/30 11:20:49;;;;;;;;;;;23.50;87.40;;;;;;4988306;28;19941;-79
2022/08/30 11:23:15;;;;;;;;;;;23.40;90.00;;;;;;4995317;28;19925;-79
2022/08/30 11:25:53;;;;;;;;;;;23.60;87.30;;;;;;4995297;28;19936;-80
2022/08/30 11:28:45;;;;;;;;;;;23.70;88.40;;;;;;4996641;28;19936;-81
2022/08/30 11:31:27;;;;;;;;;;;23.90;87.30;;;;;;4997070;28;20001;-82
2022/08/30 11:33:55;;;;;;;;;;;24.20;87.30;;;;;;4995305;28;20020;-77
2022/08/30 11:36:27;;;;;;;;;;;24.50;85.30;;;;;;4989579;28;20008;-77
2022/08/30 11:38:53;;;;;;;;;;;24.40;83.30;;;;;;5000902;28;19972;-79
2022/08/30 11:41:35;;;;;;;;;;;24.50;84.20;;;;;;4990528;28;19925;-80
2022/08/30 11:44:11;;;;;;;;;;;24.40;82.50;;;;;;4984466;28;20003;-80
2022/08/30 11:46:38;;;;;;;;;;;24.40;84.30;;;;;;4978781;28;19929;-78
2022/08/30 11:49:13;;;;;;;;;;;24.40;82.40;;;;;;4979785;28;19940;-81
2022/08/30 11:51:58;;;;;;;;;;;24.30;81.50;;;;;;4976216;28;20293;-83
2022/08/30 11:54:24;;;;;;;;;;;24.50;84.70;;;;;;5004219;28;19934;-79
2022/08/30 11:57:05;;;;;;;;;;;24.70;82.10;;;;;;4973783;28;19926;-81
2022/08/30 11:59:31;;;;;;;;;;;24.80;80.20;;;;;;4987848;28;20330;-81
2022/08/30 12:01:57;;;;;;;;;;;24.80;79.40;;;;;;4997377;28;20005;-83
2022/08/30 12:04:23;;;;;;;;;;;24.60;78.60;;;;;;4981717;28;19932;-82
2022/08/30 12:06:55;;;;;;;;;;;24.60;79.00;;;;;;4992413;28;20010;-81
2022/08/30 12:09:24;;;;;;;;;;;24.60;79.50;;;;;;4979423;28;19929;-82
2022/08/30 12:11:52;;;;;;;;;;;24.70;80.70;;;;;;4996989;28;19941;-79
2022/08/30 12:14:36;;;;;;;;;;;24.70;79.60;;;;;;4998720;28;19925;-81
2022/08/30 12:19:55;;;;;;;;;;;24.40;77.10;;;;;;5003550;28;19937;-79
2022/08/30 12:22:21;;;;;;;;;;;24.30;78.80;;;;;;5000425;28;19980;-80
2022/08/30 12:24:48;;;;;;;;;;;24.30;79.90;;;;;;4977895;28;19929;-84
2022/08/30 12:27:23;;;;;;;;;;;24.40;79.40;;;;;;4983577;28;19980;-81
2022/08/30 12:29:54;;;;;;;;;;;24.40;80.70;;;;;;4981731;28;19971;-80
2022/08/30 12:32:39;;;;;;;;;;;24.30;83.00;;;;;;4996851;28;19941;-79
2022/08/30 12:35:05;;;;;;;;;;;24.10;84.80;;;;;;5005479;28;20024;-79
2022/08/30 12:37:38;;;;;;;;;;;23.80;85.60;;;;;;4987419;28;19991;-79
2022/08/30 12:40:04;;;;;;;;;;;23.70;86.80;;;;;;4989219;28;20313;-78
2022/08/30 12:42:32;;;;;;;;;;;23.50;86.90;;;;;;4990175;28;20487;-78
2022/08/30 12:45:17;;;;;;;;;;;23.50;87.90;;;;;;5000240;28;19925;-81
2022/08/30 12:47:49;;;;;;;;;;;23.30;88.10;;;;;;4998110;28;19932;-83
2022/08/30 12:50:17;;;;;;;;;;;23.10;89.50;;;;;;4976891;28;19933;-83
2022/08/30 12:52:45;;;;;;;;;;;23.00;90.00;;;;;;4998087;28;20789;-81
2022/08/30 12:55:13;;;;;;;;;;;23.00;90.20;;;;;;4989346;28;19935;-85
2022/08/30 12:57:41;;;;;;;;;;;23.00;90.00;;;;;;5007795;28;19980;-80
2022/08/30 13:00:08;;;;;;;;;;;23.00;90.10;;;;;;4989089;28;20414;-82
2022/08/30 13:02:51;;;;;;;;;;;22.90;90.10;;;;;;4995908;28;19949;-77
2022/08/30 13:05:26;;;;;;;;;;;22.80;90.10;;;;;;4986446;28;19933;-79
2022/08/30 13:08:06;;;;;;;;;;;22.70;90.70;;;;;;4979700;28;19925;-80
2022/08/30 13:10:33;;;;;;;;;;;22.50;91.10;;;;;;4979902;28;19926;-85
2022/08/30 13:13:02;;;;;;;;;;;22.30;90.90;;;;;;4984795;28;19930;-80
2022/08/30 13:15:31;;;;;;;;;;;22.30;91.40;;;;;;4990860;28;19946;-81
2022/08/30 13:18:10;;;;;;;;;;;22.40;91.60;;;;;;4977998;28;20443;-81
2022/08/30 13:20:36;;;;;;;;;;;22.40;91.00;;;;;;4981869;28;20296;-79
2022/08/30 13:23:04;;;;;;;;;;;22.40;91.10;;;;;;5011706;28;19972;-81
2022/08/30 13:25:31;;;;;;;;;;;22.40;90.90;;;;;;4998196;28;19994;-81
2022/08/30 13:27:58;;;;;;;;;;;22.40;91.60;;;;;;4996309;28;19969;-82
2022/08/30 13:30:24;;;;;;;;;;;22.40;91.70;;;;;;5002237;28;19929;-79
2022/08/30 13:32:49;;;;;;;;;;;22.40;91.60;;;;;;4994735;28;20399;-84
2022/08/30 13:35:15;;;;;;;;;;;22.40;91.90;;;;;;4994234;28;19930;-79
2022/08/30 13:37:41;;;;;;;;;;;22.50;91.30;;;;;;5002769;28;19929;-80
2022/08/30 13:40:08;;;;;;;;;;;22.50;91.90;;;;;;5003850;28;19925;-79
2022/08/30 13:42:34;;;;;;;;;;;22.50;92.30;;;;;;4992033;28;20052;-80
2022/08/30 13:45:00;;;;;;;;;;;22.40;92.60;;;;;;5006217;28;19971;-80
2022/08/30 13:47:26;;;;;;;;;;;22.30;92.70;;;;;;4983738;28;20412;-79
2022/08/30 13:49:52;;;;;;;;;;;22.30;92.60;;;;;;5001934;28;19937;-80
2022/08/30 13:52:23;;;;;;;;;;;22.30;93.00;;;;;;4985070;28;20373;-80
2022/08/30 13:54:50;;;;;;;;;;;22.40;93.20;;;;;;4983846;28;19933;-77
2022/08/30 13:57:17;;;;;;;;;;;22.30;93.20;;;;;;4992089;28;19925;-77
2022/08/30 13:59:42;;;;;;;;;;;22.30;93.20;;;;;;5000789;28;19926;-81
2022/08/30 14:02:08;;;;;;;;;;;22.30;93.10;;;;;;4971230;28;20044;-78
2022/08/30 14:04:34;;;;;;;;;;;22.20;93.60;;;;;;4997188;28;19930;-78
2022/08/30 14:07:00;;;;;;;;;;;22.10;93.60;;;;;;4971167;28;19933;-78
2022/08/30 14:09:25;;;;;;;;;;;22.10;93.90;;;;;;4968762;28;20361;-77
2022/08/30 14:11:51;;;;;;;;;;;22.00;93.40;;;;;;4981047;28;19940;-78
2022/08/30 14:14:17;;;;;;;;;;;21.90;93.10;;;;;;4990607;28;20285;-78
2022/08/30 14:16:45;;;;;;;;;;;21.90;93.70;;;;;;4986392;28;19969;-80
2022/08/30 14:19:11;;;;;;;;;;;21.90;94.00;;;;;;4995205;28;20447;-80
2022/08/30 14:21:37;;;;;;;;;;;21.90;94.60;;;;;;4969995;28;19930;-79
2022/08/30 14:24:05;;;;;;;;;;;22.00;94.90;;;;;;4994036;28;20015;-80
2022/08/30 14:26:34;;;;;;;;;;;22.00;95.20;;;;;;4987197;28;19945;-79
2022/08/30 14:29:02;;;;;;;;;;;22.00;94.90;;;;;;5005256;28;19995;-83
2022/08/30 14:31:29;;;;;;;;;;;22.00;95.40;;;;;;4988414;28;19941;-85
2022/08/30 14:33:55;;;;;;;;;;;21.90;95.30;;;;;;5005115;28;20049;-78